Time;durP1;ratioP1;P1;durP2;ratioP2;P2;SDS_P1;SDS_P2;PMS_P1;PMS_P2;Temp;Humidity;BMP_temperature;BMP_pressure;BME280_temperature;BME280_humidity;BME280_pressure;Samples;Min_cycle;Max_cycle;Signal;HPM_P1;HPM_P2
2022/02/10 00:07:04;;;;;;;14.63;11.20;;;9.70;99.90;;;;;;5070712;28;20445;-69
2022/02/10 00:15:40;;;;;;;13.63;10.33;;;9.60;99.90;;;;;;5077350;28;20528;-68
2022/02/10 00:18:22;;;;;;;14.00;10.37;;;9.60;99.90;;;;;;5077233;28;20449;-69
2022/02/10 00:20:53;;;;;;;14.10;11.17;;;9.60;99.90;;;;;;5077575;28;20434;-71
2022/02/10 00:23:39;;;;;;;14.63;11.57;;;9.60;99.90;;;;;;5078663;28;20498;-70
2022/02/10 00:34:23;;;;;;;15.73;11.20;;;9.60;99.90;;;;;;5079370;28;20414;-68
2022/02/10 00:36:58;;;;;;;15.43;11.67;;;9.60;99.90;;;;;;5080044;28;20730;-68
2022/02/10 00:39:43;;;;;;;14.40;11.13;;;9.60;99.90;;;;;;5079247;28;20878;-69
2022/02/10 00:42:13;;;;;;;14.20;10.97;;;9.60;99.90;;;;;;5076845;28;20478;-69
2022/02/10 00:44:39;;;;;;;16.47;12.17;;;9.60;99.90;;;;;;5076907;28;20478;-69
2022/02/10 00:47:07;;;;;;;15.53;11.53;;;9.70;99.90;;;;;;5076501;28;20462;-69
2022/02/10 00:49:35;;;;;;;13.07;10.33;;;9.70;99.90;;;;;;5076803;28;20545;-67
2022/02/10 00:52:04;;;;;;;14.20;11.40;;;9.70;99.90;;;;;;5076667;28;20453;-69
2022/02/10 00:54:31;;;;;;;13.30;9.80;;;9.70;99.90;;;;;;5077921;28;20545;-70
2022/02/10 00:56:58;;;;;;;16.23;11.40;;;9.70;99.90;;;;;;5077464;28;20462;-69
2022/02/10 00:59:36;;;;;;;13.90;10.60;;;9.70;99.90;;;;;;5076478;28;20462;-68
2022/02/10 01:02:33;;;;;;;13.10;10.50;;;9.70;99.90;;;;;;5076665;28;20438;-68
2022/02/10 01:10:39;;;;;;;16.63;11.50;;;9.70;99.90;;;;;;5076022;28;20430;-68
2022/02/10 01:13:21;;;;;;;12.97;10.00;;;9.70;99.90;;;;;;5076780;28;20848;-69
2022/02/10 01:29:30;;;;;;;15.07;10.83;;;9.60;99.90;;;;;;5051471;28;20520;-68
2022/02/10 01:30:07;;;;;;;16.07;10.70;;;9.60;99.90;;;;;;5077700;28;20426;-68
2022/02/10 01:32:35;;;;;;;14.43;10.83;;;9.60;99.90;;;;;;5076408;28;20458;-68
2022/02/10 01:35:05;;;;;;;14.43;11.30;;;9.60;99.90;;;;;;5075671;28;20466;-68
2022/02/10 01:37:31;;;;;;;12.50;10.13;;;9.60;99.90;;;;;;5075776;28;20557;-68
2022/02/10 01:40:07;;;;;;;13.53;10.23;;;9.60;99.90;;;;;;5075461;28;20458;-69
2022/02/10 01:43:14;;;;;;;12.83;9.10;;;9.60;99.90;;;;;;5075253;28;20539;-68
2022/02/10 02:05:05;;;;;;;16.10;11.10;;;9.50;99.90;;;;;;4993983;28;20582;-68
2022/02/10 02:07:35;;;;;;;14.83;12.10;;;9.50;99.90;;;;;;5041303;28;20454;-68
2022/02/10 02:10:02;;;;;;;16.10;11.90;;;9.60;99.90;;;;;;5075173;28;20453;-69
2022/02/10 02:12:28;;;;;;;15.43;12.20;;;9.60;99.90;;;;;;5074905;28;20454;-69
2022/02/10 02:14:55;;;;;;;16.90;13.03;;;9.50;99.90;;;;;;5075397;28;20813;-69
2022/02/10 02:17:22;;;;;;;18.00;13.07;;;9.50;99.90;;;;;;5075046;28;20454;-68
2022/02/10 02:19:49;;;;;;;15.63;12.00;;;9.50;99.90;;;;;;5074962;28;20466;-68
2022/02/10 02:22:19;;;;;;;16.07;11.97;;;9.60;99.90;;;;;;5074940;28;20461;-68
2022/02/10 02:24:47;;;;;;;15.17;11.20;;;9.60;99.90;;;;;;5074970;28;20474;-68
2022/02/10 02:27:17;;;;;;;13.43;10.70;;;9.60;99.90;;;;;;5074711;28;20469;-68
2022/02/10 02:29:50;;;;;;;13.63;9.70;;;9.60;99.90;;;;;;5074756;28;20481;-68
2022/02/10 02:32:22;;;;;;;13.40;10.57;;;9.60;99.90;;;;;;5074890;28;20438;-68
2022/02/10 02:35:16;;;;;;;13.50;9.90;;;9.50;99.90;;;;;;5074921;28;20619;-68
2022/02/10 02:38:02;;;;;;;12.13;9.77;;;9.50;99.90;;;;;;5074811;28;20475;-68
2022/02/10 03:05:24;;;;;;;10.10;7.90;;;9.50;99.90;;;;;;5077700;28;20503;-68
2022/02/10 03:07:51;;;;;;;9.93;8.07;;;9.50;99.90;;;;;;5078572;28;20795;-68
2022/02/10 03:10:35;;;;;;;10.90;8.13;;;9.50;99.90;;;;;;5078482;28;20458;-68
2022/02/10 03:13:02;;;;;;;10.80;8.50;;;9.50;99.90;;;;;;5078346;28;20442;-68
2022/02/10 03:15:35;;;;;;;9.27;7.40;;;9.50;99.90;;;;;;5078259;28;20937;-68
2022/02/10 03:18:20;;;;;;;9.63;7.57;;;9.60;99.90;;;;;;5078439;28;20500;-68
2022/02/10 03:21:02;;;;;;;11.07;8.23;;;9.50;99.90;;;;;;5078316;28;20940;-68
2022/02/10 04:07:41;;;;;;;9.70;7.97;;;9.50;99.90;;;;;;5077511;28;20425;-67
2022/02/10 04:15:44;;;;;;;10.40;7.63;;;9.50;99.90;;;;;;5076777;28;20434;-69
2022/02/10 04:21:05;;;;;;;10.20;7.53;;;9.50;99.90;;;;;;5077133;28;20763;-68
2022/02/10 04:23:45;;;;;;;10.27;7.73;;;9.50;99.90;;;;;;5077634;28;20745;-69
2022/02/10 04:26:23;;;;;;;9.27;7.53;;;9.50;99.90;;;;;;5076690;28;20525;-68
2022/02/10 04:29:28;;;;;;;9.50;8.53;;;9.40;99.90;;;;;;5077084;28;20525;-69
2022/02/10 04:32:18;;;;;;;10.43;8.00;;;9.50;99.90;;;;;;5077078;28;20462;-69
2022/02/10 04:38:01;;;;;;;8.90;7.83;;;9.40;99.90;;;;;;5078088;28;20441;-68
2022/02/10 04:43:38;;;;;;;9.80;8.40;;;9.50;99.90;;;;;;5076704;28;20866;-68
2022/02/10 04:57:17;;;;;;;12.40;7.60;;;9.50;99.90;;;;;;5078347;28;20434;-68
2022/02/10 05:00:15;;;;;;;9.23;7.30;;;9.50;99.90;;;;;;5078911;28;20485;-68
2022/02/10 05:06:15;;;;;;;7.13;6.37;;;9.50;99.90;;;;;;5061841;28;20557;-68
2022/02/10 05:12:11;;;;;;;15.90;6.73;;;9.50;99.90;;;;;;5076157;28;20549;-67
2022/02/10 05:17:16;;;;;;;8.63;6.67;;;9.60;99.90;;;;;;5022367;28;20441;-68
2022/02/10 05:20:02;;;;;;;8.70;6.60;;;9.60;99.90;;;;;;5076100;28;20442;-68
2022/02/10 05:22:48;;;;;;;8.33;5.93;;;9.60;99.90;;;;;;5076393;28;20438;-69
2022/02/10 05:33:41;;;;;;;11.40;8.30;;;9.70;99.90;;;;;;5075859;28;20437;-68
2022/02/10 05:36:10;;;;;;;8.80;7.10;;;9.70;99.90;;;;;;5075850;28;20442;-68
2022/02/10 05:38:44;;;;;;;9.97;6.80;;;9.70;99.90;;;;;;5075910;28;20630;-68
2022/02/10 05:44:27;;;;;;;7.87;6.40;;;9.70;99.90;;;;;;5075447;28;20470;-68
2022/02/10 05:47:07;;;;;;;8.03;6.40;;;9.60;99.90;;;;;;5075223;28;20869;-67
2022/02/10 05:58:01;;;;;;;6.70;5.97;;;9.50;99.90;;;;;;5069848;28;20922;-68
2022/02/10 06:01:23;;;;;;;9.43;5.20;;;9.40;99.90;;;;;;5074992;28;20891;-68
2022/02/10 06:51:03;;;;;;;7.33;6.00;;;9.20;99.90;;;;;;5013348;28;20506;-68
2022/02/10 06:53:40;;;;;;;6.63;5.10;;;9.20;99.90;;;;;;5071236;28;20460;-69
2022/02/10 07:04:48;;;;;;;9.10;6.40;;;9.20;99.90;;;;;;5074486;28;20461;-68
2022/02/10 07:07:36;;;;;;;6.20;5.20;;;9.20;99.90;;;;;;5074074;28;20827;-69
2022/02/10 07:49:05;;;;;;;13.03;7.00;;;9.30;99.90;;;;;;5074033;28;20425;-69
2022/02/10 07:54:30;;;;;;;9.03;7.13;;;9.40;99.90;;;;;;5063083;28;20551;-69
2022/02/10 07:57:16;;;;;;;8.90;7.50;;;9.30;99.90;;;;;;5077476;28;20460;-69
2022/02/10 08:57:15;;;;;;;10.87;7.23;;;10.30;99.90;;;;;;5066345;28;20537;-69
2022/02/10 09:03:08;;;;;;;8.07;6.80;;;10.50;99.90;;;;;;5050287;28;20543;-68
2022/02/10 09:05:53;;;;;;;10.20;7.53;;;10.50;99.90;;;;;;5076418;28;20473;-69
2022/02/10 09:14:44;;;;;;;12.50;7.07;;;10.50;99.90;;;;;;5092862;27;20524;-69
2022/02/10 09:48:12;;;;;;;7.80;6.70;;;10.30;99.90;;;;;;5096018;28;20440;-69
2022/02/10 09:56:22;;;;;;;11.23;7.53;;;10.30;99.90;;;;;;5091751;28;20499;-69
2022/02/10 09:59:08;;;;;;;10.67;7.50;;;10.30;99.90;;;;;;5096833;28;20438;-69
2022/02/10 10:01:41;;;;;;;10.30;7.97;;;10.30;99.90;;;;;;5096130;28;20456;-68
2022/02/10 10:04:16;;;;;;;10.93;7.83;;;10.30;99.90;;;;;;5094700;28;20437;-69
2022/02/10 10:06:55;;;;;;;11.13;8.20;;;10.40;99.90;;;;;;5091632;28;20496;-69
2022/02/10 10:09:37;;;;;;;9.60;7.60;;;10.40;99.90;;;;;;5091510;28;20499;-70
2022/02/10 10:15:16;;;;;;;10.47;7.83;;;10.50;99.90;;;;;;5091635;28;20452;-69
2022/02/10 10:18:08;;;;;;;9.20;7.17;;;10.60;99.90;;;;;;5091484;28;20446;-70
2022/02/10 10:21:02;;;;;;;8.60;6.87;;;10.70;99.90;;;;;;5091238;28;20442;-70
2022/02/10 10:23:50;;;;;;;10.33;7.20;;;10.80;99.90;;;;;;5091020;28;20804;-70
2022/02/10 10:26:40;;;;;;;10.77;8.10;;;10.90;99.90;;;;;;5077257;28;20438;-69
2022/02/10 10:51:41;;;;;;;8.73;6.97;;;11.30;99.90;;;;;;5132962;28;20468;-70
2022/02/10 10:54:17;;;;;;;8.30;6.70;;;11.20;99.90;;;;;;5133059;28;20447;-69
2022/02/10 10:56:48;;;;;;;11.17;7.90;;;11.20;99.90;;;;;;5132897;28;20466;-69
2022/02/10 10:59:42;;;;;;;9.50;6.70;;;11.20;99.90;;;;;;5133157;28;20559;-70
2022/02/10 11:39:24;;;;;;;8.57;7.10;;;11.60;99.90;;;;;;5132901;28;20479;-68
2022/02/10 11:42:25;;;;;;;12.90;8.20;;;11.60;99.90;;;;;;5132916;27;20504;-69
2022/02/10 12:30:57;;;;;;;12.83;8.93;;;10.80;99.90;;;;;;5108162;28;20474;-69
2022/02/10 12:36:23;;;;;;;9.90;7.70;;;10.50;99.90;;;;;;5107854;27;20499;-71
2022/02/10 13:23:30;;;;;;;12.17;9.70;;;10.30;99.90;;;;;;5116278;28;20968;-69
2022/02/10 14:10:58;;;;;;;1.50;1.20;;;7.30;99.90;;;;;;5117155;28;20416;-70
2022/02/10 14:13:30;;;;;;;1.90;1.30;;;7.20;99.90;;;;;;5116448;28;20619;-71
2022/02/10 14:18:53;;;;;;;7.20;1.00;;;7.10;99.90;;;;;;5097799;28;20758;-72
2022/02/10 14:21:31;;;;;;;2.80;1.20;;;7.20;99.90;;;;;;5116064;28;20812;-72
2022/02/10 14:26:48;;;;;;;2.90;1.20;;;7.20;99.90;;;;;;5115697;28;20428;-71
2022/02/10 14:29:15;;;;;;;1.87;1.10;;;7.10;99.90;;;;;;5115398;28;20459;-70
2022/02/10 14:31:44;;;;;;;1.60;1.30;;;7.10;99.90;;;;;;5115352;28;20797;-70
2022/02/10 14:34:16;;;;;;;4.27;2.43;;;7.10;99.90;;;;;;5115395;28;20521;-71
2022/02/10 14:36:45;;;;;;;2.43;1.30;;;7.10;99.90;;;;;;5115923;28;20451;-72
2022/02/10 14:39:25;;;;;;;2.20;1.10;;;7.20;99.90;;;;;;5115165;28;20484;-72
2022/02/10 15:54:26;;;;;;;3.13;2.30;;;7.20;99.90;;;;;;5092700;28;20838;-71
2022/02/10 16:10:54;;;;;;;3.20;2.20;;;6.90;99.90;;;;;;5092499;28;20472;-72
2022/02/10 16:18:53;;;;;;;4.77;3.00;;;6.70;99.90;;;;;;5093487;28;20448;-73
2022/02/10 16:21:31;;;;;;;2.23;2.03;;;6.70;99.90;;;;;;5093496;28;20456;-73
2022/02/10 16:24:03;;;;;;;2.87;2.50;;;6.70;99.90;;;;;;5093449;28;20473;-72
2022/02/10 16:26:41;;;;;;;5.50;2.37;;;6.70;99.90;;;;;;5094272;28;20437;-72
2022/02/10 16:29:15;;;;;;;2.90;2.33;;;6.70;99.90;;;;;;5094638;28;20464;-72
2022/02/10 16:31:42;;;;;;;6.30;2.67;;;6.60;99.90;;;;;;5093555;28;20448;-72
2022/02/10 16:34:11;;;;;;;5.10;2.30;;;6.60;99.90;;;;;;5093840;28;20454;-71
2022/02/10 16:36:38;;;;;;;4.50;2.77;;;6.60;99.90;;;;;;5093696;28;20556;-73
2022/02/10 16:39:07;;;;;;;3.97;2.47;;;6.60;99.90;;;;;;5094441;28;20460;-73
2022/02/10 16:41:33;;;;;;;4.23;2.87;;;6.60;99.90;;;;;;5096390;28;20487;-71
2022/02/10 16:44:00;;;;;;;5.07;3.53;;;6.60;99.90;;;;;;5095499;28;20461;-73
2022/02/10 16:46:27;;;;;;;5.87;4.50;;;6.60;99.90;;;;;;5095642;28;20464;-73
2022/02/10 16:48:54;;;;;;;5.50;4.10;;;6.60;99.90;;;;;;5095190;28;20453;-72
2022/02/10 16:51:22;;;;;;;7.30;4.50;;;6.70;99.90;;;;;;5096287;28;20442;-71
2022/02/10 16:53:53;;;;;;;6.17;5.13;;;6.70;99.90;;;;;;5095926;28;20478;-72
2022/02/10 16:56:25;;;;;;;7.30;4.90;;;6.80;99.90;;;;;;5097012;28;20469;-72
2022/02/10 16:59:05;;;;;;;5.97;4.70;;;6.80;99.90;;;;;;5096858;28;20438;-72
2022/02/10 17:04:43;;;;;;;4.87;4.37;;;6.80;99.90;;;;;;5077078;28;20442;-71
2022/02/10 17:21:03;;;;;;;5.03;3.63;;;6.80;99.90;;;;;;5076447;28;20475;-72
2022/02/10 17:26:32;;;;;;;4.87;3.80;;;6.80;99.90;;;;;;5077315;28;20425;-72
2022/02/10 17:29:09;;;;;;;5.67;3.67;;;6.80;99.90;;;;;;5077313;28;20474;-72
2022/02/10 17:31:45;;;;;;;4.37;3.97;;;6.80;99.90;;;;;;5077147;28;20430;-71
2022/02/10 17:34:25;;;;;;;6.03;4.80;;;6.80;99.90;;;;;;5076835;28;20438;-72
2022/02/10 17:37:06;;;;;;;5.87;5.27;;;6.80;99.90;;;;;;5076964;28;20438;-71
2022/02/10 17:45:25;;;;;;;6.20;5.70;;;6.80;99.90;;;;;;5077096;28;20804;-72
2022/02/10 17:53:25;;;;;;;5.00;4.50;;;6.80;99.90;;;;;;5045891;28;20438;-72
2022/02/10 17:55:53;;;;;;;5.00;4.50;;;6.80;99.90;;;;;;5076121;28;20966;-73
2022/02/10 17:58:22;;;;;;;6.00;5.40;;;6.90;99.90;;;;;;5076435;28;20803;-72
2022/02/10 18:00:51;;;;;;;5.20;4.40;;;6.80;99.90;;;;;;5076220;28;20968;-72
2022/02/10 18:03:18;;;;;;;7.03;5.77;;;6.80;99.90;;;;;;5079612;28;20454;-72
2022/02/10 18:06:18;;;;;;;6.70;5.93;;;6.80;99.90;;;;;;5081189;28;20540;-71
2022/02/10 18:08:50;;;;;;;8.57;5.83;;;6.80;99.90;;;;;;5077717;28;20430;-71
2022/02/10 18:14:04;;;;;;;6.40;5.60;;;6.80;99.90;;;;;;5074944;28;20429;-71
2022/02/10 18:16:37;;;;;;;13.70;7.87;;;6.80;99.90;;;;;;5076149;28;20701;-71
2022/02/10 18:19:08;;;;;;;9.30;6.80;;;6.80;99.90;;;;;;5076383;28;20756;-71
2022/02/10 18:22:04;;;;;;;8.57;6.90;;;6.90;99.90;;;;;;5076687;28;20449;-72
2022/02/10 18:27:27;;;;;;;9.53;6.80;;;6.90;99.90;;;;;;5040062;28;20471;-72
2022/02/10 18:30:14;;;;;;;11.60;7.10;;;6.90;99.90;;;;;;5075944;28;20466;-71
2022/02/10 19:06:01;;;;;;;5.70;3.17;;;7.00;99.90;;;;;;5078079;28;20425;-71
2022/02/10 19:08:44;;;;;;;3.60;2.83;;;7.00;99.90;;;;;;5077951;28;20530;-71
2022/02/10 19:11:14;;;;;;;3.67;3.27;;;7.00;99.90;;;;;;5078694;28;20496;-73
2022/02/10 19:13:40;;;;;;;5.90;3.03;;;7.00;99.90;;;;;;5077228;28;20454;-71
2022/02/10 19:16:07;;;;;;;5.30;4.17;;;7.00;99.90;;;;;;5077310;28;20458;-72
2022/02/10 19:18:34;;;;;;;4.30;3.13;;;7.00;99.90;;;;;;5076612;28;20462;-72
2022/02/10 19:21:02;;;;;;;3.20;2.83;;;6.90;99.90;;;;;;5074854;28;20450;-71
2022/02/10 19:23:28;;;;;;;4.37;3.30;;;6.90;99.90;;;;;;5075112;28;20465;-71
2022/02/10 19:25:55;;;;;;;3.60;3.30;;;6.90;99.90;;;;;;5074739;28;20458;-71
2022/02/10 19:28:22;;;;;;;3.80;3.40;;;6.90;99.90;;;;;;5075311;28;20461;-72
2022/02/10 19:30:49;;;;;;;10.43;4.20;;;6.90;99.90;;;;;;5074975;28;20478;-72
2022/02/10 19:33:16;;;;;;;5.33;4.37;;;6.80;99.90;;;;;;5074819;28;20457;-72
2022/02/10 19:35:45;;;;;;;5.20;4.03;;;6.90;99.90;;;;;;5074291;28;20455;-71
2022/02/10 19:38:17;;;;;;;4.73;4.20;;;6.90;99.90;;;;;;5074755;28;20462;-71
2022/02/10 19:40:47;;;;;;;6.07;4.97;;;6.90;99.90;;;;;;5074805;28;20435;-70
2022/02/10 19:43:14;;;;;;;5.67;5.07;;;6.90;99.90;;;;;;5074519;28;20535;-72
2022/02/10 19:45:41;;;;;;;8.87;5.40;;;6.90;99.90;;;;;;5074644;28;20787;-71
2022/02/10 19:48:08;;;;;;;6.40;5.23;;;6.90;99.90;;;;;;5074519;28;20454;-71
2022/02/10 19:50:35;;;;;;;6.97;5.77;;;6.90;99.90;;;;;;5074022;28;20490;-72
2022/02/10 19:53:07;;;;;;;7.10;5.90;;;7.00;99.90;;;;;;5074264;28;20486;-72
2022/02/10 19:55:39;;;;;;;8.17;5.97;;;7.00;99.90;;;;;;5074623;28;20446;-70
2022/02/10 19:58:09;;;;;;;6.60;5.93;;;7.00;99.90;;;;;;5074414;28;20533;-70
2022/02/10 20:00:41;;;;;;;7.90;5.43;;;7.00;99.90;;;;;;5074590;28;20462;-72
2022/02/10 20:03:13;;;;;;;8.13;5.60;;;6.90;99.90;;;;;;5074759;28;20481;-71
2022/02/10 20:05:45;;;;;;;7.80;5.17;;;6.90;99.90;;;;;;5074839;28;20769;-72
2022/02/10 20:08:12;;;;;;;9.60;4.90;;;6.90;99.90;;;;;;5075708;28;20442;-71
2022/02/10 20:10:41;;;;;;;6.47;4.43;;;6.90;99.90;;;;;;5075811;28;20508;-71
2022/02/10 20:13:09;;;;;;;7.00;4.80;;;6.90;99.90;;;;;;5076008;28;20458;-73
2022/02/10 20:15:36;;;;;;;7.50;5.57;;;6.90;99.90;;;;;;5076830;28;20527;-72
2022/02/10 20:18:05;;;;;;;6.00;5.17;;;6.90;99.90;;;;;;5075239;28;20462;-71
2022/02/10 20:20:32;;;;;;;6.80;5.30;;;6.80;99.90;;;;;;5074362;28;20511;-71
2022/02/10 20:22:59;;;;;;;7.00;6.30;;;6.80;99.90;;;;;;5074261;28;20469;-71
2022/02/10 20:25:26;;;;;;;8.73;6.63;;;6.80;99.90;;;;;;5074227;28;20465;-70
2022/02/10 20:27:54;;;;;;;7.83;6.20;;;6.90;99.90;;;;;;5074266;28;20454;-71
2022/02/10 20:30:21;;;;;;;9.10;7.57;;;6.90;99.90;;;;;;5074267;28;20810;-71
2022/02/10 20:32:48;;;;;;;12.03;7.47;;;6.80;99.90;;;;;;5074351;28;20454;-72
2022/02/10 20:35:16;;;;;;;8.73;6.70;;;6.80;99.90;;;;;;5074456;28;20454;-72
2022/02/10 20:37:43;;;;;;;10.83;7.90;;;6.80;99.90;;;;;;5077339;28;20552;-72
2022/02/10 20:40:10;;;;;;;10.73;8.03;;;6.90;99.90;;;;;;5077923;28;20484;-72
2022/02/10 20:42:38;;;;;;;11.13;7.90;;;6.80;99.90;;;;;;5077825;28;20454;-72
2022/02/10 20:45:07;;;;;;;11.50;8.20;;;6.80;99.90;;;;;;5077879;28;20469;-73
2022/02/10 20:47:35;;;;;;;14.60;9.10;;;6.80;99.90;;;;;;5077811;28;20488;-71
2022/02/10 20:50:03;;;;;;;13.60;8.60;;;6.80;99.90;;;;;;5077202;28;20482;-72
2022/02/10 20:52:31;;;;;;;10.43;8.53;;;6.80;99.90;;;;;;5077804;28;20486;-72
2022/02/10 20:54:59;;;;;;;12.70;9.00;;;6.80;99.90;;;;;;5077826;28;20446;-72
2022/02/10 20:57:26;;;;;;;15.27;9.47;;;6.80;99.90;;;;;;5077708;28;20446;-73
2022/02/10 20:59:54;;;;;;;12.63;10.50;;;6.80;99.90;;;;;;5078004;28;20461;-74
2022/02/10 21:02:30;;;;;;;13.67;8.57;;;6.80;99.90;;;;;;5078158;28;20541;-75
2022/02/10 21:05:02;;;;;;;11.70;9.60;;;6.80;99.90;;;;;;5077856;28;20439;-72
2022/02/10 21:07:35;;;;;;;15.80;11.50;;;6.90;99.90;;;;;;5078031;28;20438;-72
2022/02/10 21:10:04;;;;;;;14.37;10.77;;;6.80;99.90;;;;;;5077221;28;20439;-72
2022/02/10 21:12:35;;;;;;;15.87;11.73;;;6.80;99.90;;;;;;5077387;28;20454;-72
2022/02/10 21:15:05;;;;;;;16.23;11.10;;;6.80;99.90;;;;;;5077759;28;20469;-73
2022/02/10 21:17:50;;;;;;;15.23;10.67;;;6.70;99.90;;;;;;5080388;28;20458;-73
2022/02/10 21:20:17;;;;;;;15.63;10.60;;;6.80;99.90;;;;;;5079813;28;20449;-71
2022/02/10 21:22:47;;;;;;;15.30;10.13;;;6.70;99.90;;;;;;5081197;28;20466;-69
2022/02/10 21:25:21;;;;;;;15.60;10.30;;;6.70;99.90;;;;;;5078504;28;20442;-71
2022/02/10 21:27:49;;;;;;;11.90;8.57;;;6.60;99.90;;;;;;5077905;28;20538;-68
2022/02/10 21:30:18;;;;;;;13.37;8.43;;;6.60;99.90;;;;;;5077467;28;20523;-69
2022/02/10 21:32:49;;;;;;;14.67;9.63;;;6.60;99.90;;;;;;5078027;28;20454;-68
2022/02/10 21:35:25;;;;;;;18.27;9.37;;;6.60;99.90;;;;;;5077389;28;20807;-69
2022/02/10 21:37:57;;;;;;;12.73;8.40;;;6.60;99.90;;;;;;5076320;28;20438;-70
2022/02/10 21:40:54;;;;;;;12.23;9.23;;;6.70;99.90;;;;;;5076275;28;20438;-69
2022/02/10 21:55:08;;;;;;;12.30;7.30;;;6.60;99.90;;;;;;5076347;28;20488;-69
2022/02/10 21:57:57;;;;;;;6.17;4.53;;;6.60;99.90;;;;;;5076058;28;20447;-70
2022/02/10 22:03:33;;;;;;;3.43;2.57;;;6.50;99.90;;;;;;5039870;28;20454;-69
2022/02/10 22:06:44;;;;;;;3.50;2.37;;;6.30;99.90;;;;;;5076772;28;20435;-68
2022/02/10 22:09:28;;;;;;;3.37;2.87;;;6.00;99.90;;;;;;5076395;28;20482;-69
2022/02/10 22:12:13;;;;;;;4.67;3.00;;;5.70;99.90;;;;;;5076679;28;20470;-69
2022/02/10 22:17:55;;;;;;;4.43;2.20;;;5.20;99.90;;;;;;5076056;28;20841;-69
2022/02/10 22:20:29;;;;;;;12.10;4.23;;;5.00;99.90;;;;;;5075310;28;20453;-69
2022/02/10 22:23:04;;;;;;;3.23;2.40;;;4.90;99.90;;;;;;5075764;28;20700;-69
2022/02/10 22:25:30;;;;;;;7.10;2.90;;;4.80;99.90;;;;;;5076104;28;20476;-69
2022/02/10 22:28:05;;;;;;;2.97;2.00;;;4.70;99.90;;;;;;5075958;28;20458;-70
2022/02/10 22:30:43;;;;;;;6.50;2.73;;;4.70;99.90;;;;;;5075974;28;20794;-73
2022/02/10 22:33:23;;;;;;;6.30;2.50;;;4.60;99.90;;;;;;5076289;28;20441;-72
2022/02/10 22:35:50;;;;;;;5.90;2.60;;;4.60;99.90;;;;;;5076087;28;20438;-71
2022/02/10 22:38:21;;;;;;;5.57;2.83;;;4.60;99.90;;;;;;5076199;28;20454;-71
2022/02/10 22:41:00;;;;;;;4.63;2.73;;;4.50;99.90;;;;;;5077008;28;20520;-69
2022/02/10 22:43:27;;;;;;;5.77;2.40;;;4.60;99.90;;;;;;5075949;28;20449;-71
2022/02/10 22:45:54;;;;;;;4.80;2.37;;;4.60;99.90;;;;;;5075560;28;20458;-70
2022/02/10 22:48:20;;;;;;;4.00;2.10;;;4.50;99.90;;;;;;5075195;28;20453;-70
2022/02/10 22:50:47;;;;;;;6.43;2.57;;;4.50;99.90;;;;;;5074869;28;20493;-70
2022/02/10 22:53:14;;;;;;;3.60;2.27;;;4.50;99.90;;;;;;5075446;28;20483;-71
2022/02/10 22:55:42;;;;;;;4.80;1.90;;;4.50;99.90;;;;;;5075660;28;20515;-71
2022/02/10 22:58:09;;;;;;;4.30;2.30;;;4.50;99.90;;;;;;5075462;28;20773;-70
2022/02/10 23:00:45;;;;;;;8.27;2.83;;;4.60;99.90;;;;;;5074800;28;20462;-70
2022/02/10 23:03:12;;;;;;;5.70;2.50;;;4.60;99.90;;;;;;5075584;28;20442;-70
2022/02/10 23:05:39;;;;;;;6.40;2.47;;;4.70;99.90;;;;;;5075270;28;20911;-71
2022/02/10 23:08:06;;;;;;;6.30;2.37;;;4.70;99.90;;;;;;5075320;28;20466;-70
2022/02/10 23:10:42;;;;;;;6.80;2.60;;;4.70;99.90;;;;;;5074735;28;20458;-70
2022/02/10 23:13:10;;;;;;;7.47;2.13;;;4.70;99.90;;;;;;5075064;28;20442;-70
2022/02/10 23:15:38;;;;;;;3.53;2.60;;;4.70;99.90;;;;;;5074795;28;20454;-71
2022/02/10 23:18:07;;;;;;;8.00;3.37;;;4.70;99.90;;;;;;5074978;28;20551;-70
2022/02/10 23:20:33;;;;;;;5.50;4.60;;;4.80;99.90;;;;;;5074542;28;20464;-70
2022/02/10 23:23:00;;;;;;;10.60;5.40;;;4.80;99.90;;;;;;5075021;28;20446;-71
2022/02/10 23:25:27;;;;;;;5.80;5.30;;;4.80;99.90;;;;;;5074904;28;20470;-69
2022/02/10 23:27:54;;;;;;;13.67;5.57;;;4.80;99.90;;;;;;5074911;28;20481;-70
2022/02/10 23:30:24;;;;;;;7.40;4.73;;;4.80;99.90;;;;;;5074431;28;20470;-71
2022/02/10 23:32:55;;;;;;;6.20;4.10;;;4.80;99.90;;;;;;5074718;28;20462;-70
2022/02/10 23:35:59;;;;;;;9.03;5.30;;;4.80;99.90;;;;;;5074514;28;20427;-70
2022/02/10 23:38:16;;;;;;;5.40;4.43;;;4.90;99.90;;;;;;5074333;28;20830;-70
2022/02/10 23:41:07;;;;;;;10.10;5.03;;;4.90;99.90;;;;;;5074701;28;20482;-70
2022/02/10 23:43:36;;;;;;;4.73;2.50;;;4.90;99.90;;;;;;5074075;28;20533;-70
2022/02/10 23:46:04;;;;;;;5.40;2.77;;;4.80;99.90;;;;;;5074520;28;20450;-70
2022/02/10 23:48:33;;;;;;;4.73;2.70;;;4.80;99.90;;;;;;5074661;28;20450;-70
2022/02/10 23:51:00;;;;;;;5.30;3.20;;;4.70;99.90;;;;;;5073978;28;20649;-70
2022/02/10 23:53:27;;;;;;;6.27;3.27;;;4.70;99.90;;;;;;5074341;28;20458;-70
2022/02/10 23:55:54;;;;;;;3.63;3.03;;;4.70;99.90;;;;;;5074408;28;20498;-69
2022/02/10 23:58:32;;;;;;;3.83;2.60;;;4.70;99.90;;;;;;5074383;28;20455;-69
